Tiempo atmosférico en la estación meteorológica de Boadilla Fuente San Esteban, Salamanca (785 m.)

Fecha
DESCASC
Temp. máxima en grados centígrados (hora)
DESCASC
Temp. mínima en grados centígrados (hora)
DESCASC
Temp. media en grados centígrados
DESCASC
Racha de viento máxima en m/sg (hora)
DESCASC
Velocidad máxima media en intervalos de 10 minutos(hora)
DESCASC
Precipitaciones diarias en mm
DESCASC
Precipitaciones de 00:00 a 06:00 en mm
DESCASC
Precipitaciones de 06:00 a 12:00 en mm
DESCASC
Precipitaciones de 12:00 a 18:00 en mm
DESCASC
Precipitaciones de 18:00 a 24:00 en mm
DESCASC
18-10-2017 14.7 (15:30) 9.1 (00:00) 11.9 9.44 (17:10) 6.39 (12:30) 4.4 1.2 2.6 0 0.6
05-10-2017 30.7 (18:00) 13 (00:00) 21.9 5.56 (23:30) 3.61 (23:30) 0 0 0 0 0
19-10-2017 14.9 (17:20) 4.9 (00:00) 9.9 8.61 (17:30) 4.44 (17:30) 0.2 0 0 0.2 0
17-10-2017 19.8 (01:30) 12.2 (00:00) 16 12.78 (16:30) 7.5 (16:10) 2.8 0 2.8 0 0
16-10-2017 24.8 (15:00) 13.5 (00:00) 19.1 9.17 (14:00) 6.39 (15:00) 0 0 0 0 0
15-10-2017 29.8 (15:20) 19.4 (00:00) 24.6 12.5 (15:40) 8.33 (15:40) 0 0 0 0 0
14-10-2017 28.6 (14:50) 9 (00:00) 18.8 9.17 (15:50) 6.39 (15:40) 0 0 0 0 0
13-10-2017 27 (15:50) 11.8 (00:00) 19.4 8.33 (16:00) 5.28 (16:00) 0 0 0 0 0
12-10-2017 29.1 (15:40) 8.4 (00:00) 18.8 8.61 (16:30) 4.72 (18:20) 0 0 0 0 0
11-10-2017 26.1 (15:50) 7.9 (00:00) 17 7.78 (16:50) 4.72 (03:00) 0 0 0 0 0
10-10-2017 27.4 (17:00) 6 (00:00) 16.7 5.56 (17:40) 3.61 (23:50) 0 0 0 0 0
09-10-2017 27.2 (17:30) 5.2 (00:00) 16.2 6.67 (16:20) 3.61 (18:20) 0 0 0 0 0
08-10-2017 28.2 (16:30) 6.8 (00:00) 17.5 5 (16:30) 3.61 (04:40) 0 0 0 0 0
07-10-2017 25.7 (17:00) 7.4 (00:00) 16.6 9.72 (17:30) 5.83 (13:50) 0 0 0 0 0
06-10-2017 26.6 (17:20) 12.4 (00:00) 19.5 10 (14:50) 6.94 (15:40) 0 0 0 0 0
20-09-2017 27.7 (17:20) 7 (00:00) 17.4 7.78 (15:20) 4.17 (15:20) 0 0 0 0 0
04-10-2017 30.8 (16:10) 11 (00:00) 20.9 9.44 (16:30) 4.44 (17:10) 0 0 0 0 0
03-10-2017 30.2 (16:40) 12.8 (00:00) 21.5 8.06 (15:20) 4.44 (15:50) 0 0 0 0 0
02-10-2017 28 (17:30) 11.4 (00:00) 19.7 6.94 (12:40) 4.44 (11:20) 0 0 0 0 0
01-10-2017 26.7 (17:00) 10.4 (00:00) 18.6 6.67 (13:40) 4.44 (12:50) 0 0 0 0 0
30-09-2017 24.9 (17:30) 12.3 (00:00) 18.6 7.78 (16:50) 4.72 (16:50) 0 0 0 0 0
29-09-2017 27.8 (16:20) 12.6 (00:00) 20.2 10 (16:10) 5.28 (16:20) 0 0 0 0 0
28-09-2017 27.3 (16:00) 10.6 (00:00) 18.9 10.28 (17:40) 5 (19:00) 0 0 0 0 0
27-09-2017 26.4 (15:00) 7.4 (00:00) 16.9 10 (14:50) 5.56 (14:40) 0 0 0 0 0
26-09-2017 25.8 (18:00) 6.5 (00:00) 16.1 5.56 (15:00) 3.33 (16:50) 0 0 0 0 0
25-09-2017 22.9 (17:30) 10.1 (00:00) 16.5 7.5 (13:50) 4.72 (13:50) 0 0 0 0 0
24-09-2017 27.4 (16:20) 10.7 (00:00) 19 11.94 (14:00) 7.22 (14:00) 0 0 0 0 0
23-09-2017 26.7 (15:40) 9.7 (00:00) 18.2 11.11 (15:00) 6.67 (15:00) 0 0 0 0 0
22-09-2017 25.8 (17:10) 7.7 (00:00) 16.7 6.39 (17:20) 3.33 (16:10) 0 0 0 0 0
21-09-2017 24.2 (17:40) 10.7 (00:00) 17.5 7.78 (16:40) 5.28 (16:40) 0 0 0 0 0

Gráficas

Temp. máximas Temp. mínimas Temp. medias Precipitaciones Rachas de viento máximas Velocidades máximas media en intervalos de 10 minutos

Datos horarios

Fecha y hora oficial Temperatura (ºC) Velocidad del viento (km/h) Dirección del viento Racha (km/h) Dirección de racha Precipitación (mm) Presión (hPa) Tendencia (hPa) Humedad (%)
2017-10-19 23:00:00 12.5 6 Sudoeste 10 Sudoeste 0 -- -- 84
2017-10-19 22:00:00 12.5 8 Sudoeste 13 Sudoeste 0 -- -- 82
2017-10-19 21:00:00 12.6 5 Sudoeste 12 Sudoeste 0 -- -- 80
2017-10-19 20:00:00 13.3 8 Sudoeste 23 Oeste 0 -- -- 79
2017-10-19 19:00:00 13.6 12 Sudoeste 25 Sudoeste 0 -- -- 79
2017-10-19 18:00:00 14.4 11 Oeste 31 Sudoeste 0 -- -- 67
2017-10-19 17:00:00 14.5 11 Sudoeste 22 Sudoeste 0 -- -- 65
2017-10-19 16:00:00 13.4 9 Sudoeste 18 Sudoeste 0 -- -- 63
2017-10-19 15:00:00 13.2 13 Sudoeste 20 Sudoeste 0 -- -- 65
2017-10-19 14:00:00 12.9 9 Sudoeste 15 Sudoeste 0 -- -- 67
2017-10-19 13:00:00 12.4 6 Oeste 13 Sudoeste 0.2 -- -- 70
2017-10-19 12:00:00 11.3 5 Sudoeste 9 Sudoeste 0 -- -- 79
2017-10-19 11:00:00 10.3 0 Calma 5 Sur 0 -- -- 90
2017-10-19 10:00:00 7.5 0 Calma 10 Sudeste 0 -- -- 94
2017-10-19 09:00:00 5.6 9 Sudeste 12 Sudeste 0 -- -- 95
2017-10-19 08:00:00 5.4 8 Sudeste 10 Sudeste 0 -- -- 95
2017-10-19 07:00:00 5.4 5 Sur 6 Sudeste 0 -- -- 96
2017-10-19 06:00:00 5.2 0 Calma 5 Noroeste 0 -- -- 94
2017-10-19 05:00:00 6.5 3 Sur 10 Sudeste 0 -- -- 92
2017-10-19 04:00:00 7 7 Sur 10 Sur 0 -- -- 92
2017-10-19 03:00:00 7.4 8 Sudeste 10 Sur 0 -- -- 93
2017-10-19 02:00:00 8.6 3 Sur 6 Sur 0 -- -- 89
2017-10-19 01:00:00 9.4 4 Sur 8 Sudoeste 0 -- -- 89
2017-10-19 00:00:00 10.2 4 Sur 5 Sur 0 -- -- 88
2017-10-18 23:00:00 10.4 3 Sudeste 6 Sudeste 0 -- -- 88
2017-10-18 22:00:00 10.4 0 Calma 5 Sudoeste 0 -- -- 88
2017-10-18 21:00:00 10.6 4 Oeste 16 Oeste 0 -- -- 84
2017-10-18 20:00:00 10.4 2 Sudoeste 10 Sudoeste 0 -- -- 83
2017-10-18 19:00:00 10.5 4 Sudoeste 30 Oeste 0.6 -- -- 82
2017-10-18 18:00:00 13.2 10 Oeste 34 Oeste 0 -- -- 66
2017-10-18 17:00:00 13.9 18 Oeste 31 Oeste 0 -- -- 59
2017-10-18 16:00:00 13.4 14 Oeste 32 Oeste 0 -- -- 61
2017-10-18 15:00:00 14.2 18 Oeste 32 Oeste 0 -- -- 54
2017-10-18 14:00:00 12.3 16 Noroeste 27 Oeste 0 -- -- 74
2017-10-18 13:00:00 12.6 18 Oeste 34 Oeste 0 -- -- 72
2017-10-18 12:00:00 11.3 16 Sudoeste 27 Oeste 0 -- -- 83
2017-10-18 11:00:00 11 13 Sudoeste 26 Sudoeste 0 -- -- 91
2017-10-18 10:00:00 9.7 13 Sudoeste 22 Sudoeste 0 -- -- 94
2017-10-18 09:00:00 9.2 4 Sudoeste 14 Sudoeste 0 -- -- 92
2017-10-18 08:00:00 9.9 11 Sur 15 Sur 1 -- -- 90
2017-10-18 07:00:00 10.1 12 Sudoeste 22 Sur 1.6 -- -- 91
2017-10-18 06:00:00 10.3 5 Sudoeste 23 Sur 0.8 -- -- 91
2017-10-18 05:00:00 11.1 15 Sur 27 Sur 0.4 -- -- 83
2017-10-18 04:00:00 12.3 14 Sur 22 Sur 0 -- -- 72
2017-10-18 03:00:00 12.2 6 Sur 10 Sur 0 -- -- 70
2017-10-18 02:00:00 12.8 7 Sudoeste 22 Sur 0 -- -- 66
2017-10-18 01:00:00 13.3 13 Sur 21 Sur 0 -- -- 62
2017-10-18 00:00:00 12.9 14 Sur 22 Sur 0 -- -- 62
2017-10-17 23:00:00 12.7 12 Sur 26 Sur 0 -- -- 65
2017-10-17 22:00:00 12.2 9 Sudoeste 17 Sur 0 -- -- 65
2017-10-17 21:00:00 13 11 Sudoeste 30 Sudoeste 0 -- -- 62
2017-10-17 20:00:00 14.6 20 Sudoeste 40 Sudoeste 0 -- -- 54
2017-10-17 19:00:00 16.7 22 Sudoeste 38 Sudoeste 0 -- -- 48
2017-10-17 18:00:00 17.4 21 Sur 42 Sur 0 -- -- 58
2017-10-17 17:00:00 16.9 21 Sur 46 Sur 0 -- -- 65
2017-10-17 16:00:00 17.2 23 Sudoeste 42 Sudoeste 0 -- -- 61
2017-10-17 15:00:00 16.1 19 Sur 36 Sur 0 -- -- 78
2017-10-17 14:00:00 16.1 21 Sur 34 Sur 0 -- -- 81
2017-10-17 13:00:00 15.4 20 Sur 36 Sur 0 -- -- 87
2017-10-17 12:00:00 15.3 14 Sur 23 Sur 0.4 -- -- 86
2017-10-17 11:00:00 14.7 13 Sur 27 Sur 0.8 -- -- 88
2017-10-17 10:00:00 14.8 17 Sudeste 31 Sudeste 1 -- -- 85
2017-10-17 09:00:00 15.6 8 Sudeste 19 Sur 0.4 -- -- 87
2017-10-17 08:00:00 17.1 9 Sur 25 Sudoeste 0.2 -- -- 75
2017-10-17 07:00:00 17.4 10 Sur 23 Sur 0 -- -- 67
2017-10-17 06:00:00 17.3 13 Sur 30 Sur 0 -- -- 67
2017-10-17 05:00:00 17.4 6 Sur 20 Sudeste 0 -- -- 56
2017-10-17 04:00:00 18.3 15 Sudeste 24 Sudeste 0 -- -- 50
2017-10-17 03:00:00 18.9 12 Sudeste 25 Sudeste 0 -- -- 48
2017-10-17 02:00:00 19.5 15 Sudeste 31 Sudeste 0 -- -- 46
2017-10-17 01:00:00 19.4 15 Sudeste 22 Sudeste 0 -- -- 44
2017-10-17 00:00:00 17.7 7 Sur 11 Sudoeste 0 -- -- 53
2017-10-16 23:00:00 18 6 Sudoeste 8 Sudoeste 0 -- -- 57
2017-10-16 22:00:00 19.1 4 Sudoeste 12 Sudeste 0 -- -- 57
2017-10-16 21:00:00 19.3 7 Sudoeste 27 Sur 0 -- -- 55
2017-10-16 20:00:00 20 8 Sudeste 29 Sudeste 0 -- -- 48
2017-10-16 19:00:00 21.9 21 Sudeste 33 Sudeste 0 -- -- 41
2017-10-16 18:00:00 23.5 22 Sudeste 31 Sudeste 0 -- -- 31
2017-10-16 17:00:00 23.8 21 Sur 33 Sur 0 -- -- 30
2017-10-16 16:00:00 24.5 20 Sur 33 Sur 0 -- -- 28
2017-10-16 15:00:00 24.8 23 Sur 32 Sur 0 -- -- 27
2017-10-16 14:00:00 24.2 21 Sur 33 Sudoeste 0 -- -- 29
2017-10-16 13:00:00 24.1 16 Sudoeste 33 Sur 0 -- -- 28
2017-10-16 12:00:00 23.4 18 Sur 31 Sur 0 -- -- 28
2017-10-16 11:00:00 21.9 9 Sudeste 14 Sudeste 0 -- -- 32
2017-10-16 10:00:00 17.6 0 Calma 3 Este 0 -- -- 40
2017-10-16 09:00:00 13.6 0 Calma 9 Oeste 0 -- -- 49
2017-10-16 08:00:00 15.7 5 Sudeste 14 Sudeste 0 -- -- 44
2017-10-16 07:00:00 17.4 13 Sudeste 19 Sur 0 -- -- 41
2017-10-16 06:00:00 17.7 6 Sur 21 Sudeste 0 -- -- 41
2017-10-16 05:00:00 18.2 14 Sudeste 19 Sudeste 0 -- -- 39
2017-10-16 04:00:00 18.3 15 Sudeste 22 Sudeste 0 -- -- 40
2017-10-16 03:00:00 18.4 13 Sudeste 23 Sudeste 0 -- -- 41
2017-10-16 02:00:00 18.9 17 Sudeste 30 Sudeste 0 -- -- 41
2017-10-16 01:00:00 20.1 14 Sudeste 21 Sudeste 0 -- -- 40
2017-10-16 00:00:00 19.6 13 Sudeste 20 Sudeste 0 -- -- 42
2017-10-15 23:00:00 21.1 13 Sudeste 24 Sudeste 0 -- -- 39
2017-10-15 22:00:00 21.8 15 Sudeste 22 Sudeste 0 -- -- 38
2017-10-15 21:00:00 21.9 11 Sudeste 19 Sudeste 0 -- -- 37
2017-10-15 20:00:00 24.5 14 Sudeste 30 Sur 0 -- -- 31
2017-10-15 19:00:00 26.9 23 Sur 37 Sur 0 -- -- 28
2017-10-15 18:00:00 27.3 25 Sur 39 Sur 0 -- -- 27
2017-10-15 17:00:00 27.8 22 Sur 41 Sur 0 -- -- 26
2017-10-15 16:00:00 28.5 26 Sur 45 Sudeste 0 -- -- 25
2017-10-15 15:00:00 29.3 27 Sur 43 Sur 0 -- -- 24
2017-10-15 14:00:00 29.5 21 Sur 37 Sur 0 -- -- 24
2017-10-15 13:00:00 27.9 22 Sur 36 Sur 0 -- -- 25
2017-10-15 12:00:00 27.1 19 Sur 30 Sur 0 -- -- 27
2017-10-15 11:00:00 24.5 10 Sudeste 19 Sudeste 0 -- -- 33
2017-10-15 10:00:00 20.8 10 Sudeste 16 Sudeste 0 -- -- 39
2017-10-15 09:00:00 20.7 12 Sudeste 17 Sudeste 0 -- -- 39
2017-10-15 08:00:00 21.2 5 Sudoeste 23 Sudeste 0 -- -- 39
2017-10-15 07:00:00 21.6 14 Sudeste 20 Sudeste 0 -- -- 38
2017-10-15 06:00:00 21.7 12 Sudeste 21 Sudeste 0 -- -- 37
2017-10-15 05:00:00 20.9 12 Sudeste 18 Sudeste 0 -- -- 37
2017-10-15 04:00:00 21.5 13 Sudeste 18 Sudeste 0 -- -- 35
2017-10-15 03:00:00 21 12 Sudeste 16 Sudeste 0 -- -- 35
2017-10-15 02:00:00 19.5 8 Sudeste 11 Sudeste 0 -- -- 37
2017-10-15 01:00:00 19.7 6 Sudeste 14 Sudeste 0 -- -- 36
2017-10-15 00:00:00 19.8 12 Sudeste 15 Sudeste 0 -- -- 36
2017-10-14 23:00:00 20.7 11 Sur 15 Sur 0 -- -- 35
2017-10-14 22:00:00 21 9 Sur 13 Sur 0 -- -- 33
2017-10-14 21:00:00 22.4 9 Sur 13 Sudoeste 0 -- -- 31
2017-10-14 20:00:00 24.7 12 Sudoeste 30 Sudoeste 0 -- -- 28
2017-10-14 19:00:00 26.1 13 Sudoeste 24 Sudoeste 0 -- -- 26
2017-10-14 18:00:00 27.1 15 Sudoeste 29 Sudoeste 0 -- -- 24
2017-10-14 17:00:00 27.4 18 Sudoeste 32 Sudoeste 0 -- -- 23
2017-10-14 16:00:00 28 19 Oeste 33 Sudoeste 0 -- -- 22
2017-10-14 15:00:00 28.6 22 Sudoeste 29 Oeste 0 -- -- 23
2017-10-14 14:00:00 27.3 16 Sudoeste 25 Sudoeste 0 -- -- 23
2017-10-14 13:00:00 25.9 12 Sudoeste 20 Sudoeste 0 -- -- 24
2017-10-14 12:00:00 23.9 3 Sudoeste 9 Sudoeste 0 -- -- 28
2017-10-14 11:00:00 20 2 Sudeste 5 Sudeste 0 -- -- 38
2017-10-14 10:00:00 12 0 Calma 10 Sudeste 0 -- -- 57
2017-10-14 09:00:00 10.6 5 Sudeste 8 Sudeste 0 -- -- 61
2017-10-14 08:00:00 11.1 7 Sudeste 11 Sudeste 0 -- -- 61
2017-10-14 07:00:00 9 3 Sudeste 6 Sudeste 0 -- -- 64
2017-10-14 06:00:00 10.7 0 Calma 13 Sudeste 0 -- -- 60
2017-10-14 05:00:00 12.5 4 Sudeste 13 Sudeste 0 -- -- 55
2017-10-14 04:00:00 12.9 8 Sudeste 17 Sudeste 0 -- -- 53
2017-10-14 03:00:00 13.3 12 Sudeste 16 Sudeste 0 -- -- 53
2017-10-14 02:00:00 13.5 9 Sudeste 13 Sudeste 0 -- -- 52
2017-10-14 01:00:00 14 8 Sudeste 12 Sudeste 0 -- -- 50
2017-10-14 00:00:00 13.9 8 Sudeste 12 Sudeste 0 -- -- 51
2017-10-13 23:00:00 14.6 0 Calma 4 Sur 0 -- -- 47
2017-10-13 22:00:00 17.2 3 Sudoeste 12 Sur 0 -- -- 40
2017-10-13 21:00:00 20.3 9 Sur 14 Sur 0 -- -- 35
2017-10-13 20:00:00 22.5 9 Sur 17 Sudoeste 0 -- -- 31
2017-10-13 19:00:00 25.2 11 Sudoeste 22 Sur 0 -- -- 26
2017-10-13 18:00:00 26.4 13 Sudoeste 26 Sudoeste 0 -- -- 26
2017-10-13 17:00:00 26.8 17 Oeste 27 Sudoeste 0 -- -- 26
2017-10-13 16:00:00 26.7 19 Sudoeste 30 Sudoeste 0 -- -- 26
2017-10-13 15:00:00 26.2 16 Sudoeste 29 Sudoeste 0 -- -- 31
2017-10-13 14:00:00 25.6 15 Sudoeste 22 Sudoeste 0 -- -- 31
2017-10-13 13:00:00 24.6 8 Sur 14 Sur 0 -- -- 37
2017-10-13 12:00:00 23.3 6 Sur 11 Sudoeste 0 -- -- 40
2017-10-13 11:00:00 21.3 2 Sudeste 10 Sudeste 0 -- -- 45
2017-10-13 10:00:00 17 4 Sudeste 15 Sudeste 0 -- -- 56
2017-10-13 09:00:00 13.4 11 Sudeste 14 Sudeste 0 -- -- 63
2017-10-13 08:00:00 13.1 8 Sudeste 10 Sudeste 0 -- -- 62
2017-10-13 07:00:00 13.3 7 Sudeste 13 Sudeste 0 -- -- 61
2017-10-13 06:00:00 13.7 9 Sudeste 14 Sudeste 0 -- -- 59
2017-10-13 05:00:00 13.9 9 Sudeste 13 Sudeste 0 -- -- 57
2017-10-13 04:00:00 12.6 5 Sudeste 8 Sudeste 0 -- -- 61
2017-10-13 03:00:00 12.7 0 Calma 6 Sur 0 -- -- 59
2017-10-13 02:00:00 13.8 3 Noroeste 12 Sur 0 -- -- 52
2017-10-13 01:00:00 16.5 12 Sur 17 Sur 0 -- -- 49
2017-10-13 00:00:00 17.7 14 Sur 17 Sur 0 -- -- 43
2017-10-12 23:00:00 17 12 Sudeste 18 Sudeste 0 -- -- 43
2017-10-12 22:00:00 18.3 14 Sudeste 20 Sudeste 0 -- -- 39
2017-10-12 21:00:00 20.1 6 Sur 10 Sur 0 -- -- 35
2017-10-12 20:00:00 23.9 8 Sur 22 Sur 0 -- -- 29
2017-10-12 19:00:00 26.9 14 Sur 27 Sur 0 -- -- 25
2017-10-12 18:00:00 28.1 12 Sur 23 Sur 0 -- -- 24
2017-10-12 17:00:00 28.7 17 Sur 31 Sudoeste 0 -- -- 23
2017-10-12 16:00:00 28.8 14 Sur 28 Sur 0 -- -- 23
2017-10-12 15:00:00 28.6 5 Noroeste 19 Sudeste 0 -- -- 21
2017-10-12 14:00:00 27.6 9 Este 16 Sudeste 0 -- -- 20
2017-10-12 13:00:00 25.8 5 Nordeste 13 Nordeste 0 -- -- 21
2017-10-12 12:00:00 23.1 6 Nordeste 10 Este 0 -- -- 25
2017-10-12 11:00:00 18.8 5 Este 12 Este 0 -- -- 33
2017-10-12 10:00:00 13.2 4 Norte 8 Norte 0 -- -- 42
2017-10-12 09:00:00 9.3 4 Sudeste 8 Este 0 -- -- 50
2017-10-12 08:00:00 10.6 2 Nordeste 13 Sudeste 0 -- -- 45
2017-10-12 07:00:00 12.5 13 Sudeste 15 Sudeste 0 -- -- 42
2017-10-12 06:00:00 11.4 3 Sudeste 13 Sudeste 0 -- -- 43
2017-10-12 05:00:00 8.7 4 Sudeste 7 Sudeste 0 -- -- 43
2017-10-12 04:00:00 8.9 4 Norte 8 Noroeste 0 -- -- 41
2017-10-12 03:00:00 10.9 3 Sur 13 Sudeste 0 -- -- 36
2017-10-12 02:00:00 10.8 8 Sudeste 10 Sudeste 0 -- -- 36
2017-10-12 01:00:00 10.3 3 Sudeste 5 Sur 0 -- -- 36
2017-10-12 00:00:00 13.7 5 Sur 14 Sudeste 0 -- -- 30
2017-10-11 23:00:00 14 13 Sudeste 15 Sudeste 0 -- -- 30
2017-10-11 22:00:00 15.2 8 Sudeste 14 Sudeste 0 -- -- 27
2017-10-11 21:00:00 16.9 0 Calma 4 Norte 0 -- -- 23
2017-10-11 20:00:00 20.5 3 Noroeste 19 Noroeste 0 -- -- 20
2017-10-11 19:00:00 24.3 11 Noroeste 26 Noroeste 0 -- -- 17
2017-10-11 18:00:00 25.5 13 Noroeste 24 Oeste 0 -- -- 19
2017-10-11 17:00:00 25.9 15 Noroeste 28 Oeste 0 -- -- 20
2017-10-11 16:00:00 26 14 Oeste 28 Sudoeste 0 -- -- 21
2017-10-11 15:00:00 25.4 13 Oeste 27 Oeste 0 -- -- 21
2017-10-11 14:00:00 25.2 10 Sudoeste 25 Oeste 0 -- -- 24
2017-10-11 13:00:00 24.4 12 Oeste 23 Oeste 0 -- -- 25
2017-10-11 12:00:00 22.8 8 Oeste 15 Sudoeste 0 -- -- 26
2017-10-11 11:00:00 19.6 4 Sudoeste 11 Sudeste 0 -- -- 34
2017-10-11 10:00:00 14.8 6 Sudeste 12 Sudeste 0 -- -- 39
2017-10-11 09:00:00 11.4 8 Sudeste 12 Sudeste 0 -- -- 46
2017-10-11 08:00:00 10 5 Sudeste 9 Sur 0 -- -- 47
2017-10-11 07:00:00 9.4 2 Nordeste 6 Sudeste 0 -- -- 49
2017-10-11 06:00:00 10.3 4 Sudeste 13 Sudeste 0 -- -- 45
2017-10-11 05:00:00 8.1 0 Calma 8 Sudeste 0 -- -- 46
2017-10-11 04:00:00 10.6 4 Sur 17 Sudeste 0 -- -- 42
2017-10-11 03:00:00 12.8 17 Sudeste 18 Sudeste 0 -- -- 40
2017-10-11 02:00:00 13.2 15 Sudeste 17 Sudeste 0 -- -- 38
2017-10-11 01:00:00 13.7 12 Sudeste 16 Sudeste 0 -- -- 35
2017-10-11 00:00:00 15 13 Sudeste 16 Sudeste 0 -- -- 33
2017-10-10 23:00:00 16.6 9 Sur 12 Sur 0 -- -- 30
2017-10-10 22:00:00 16.4 7 Sur 10 Sur 0 -- -- 26
2017-10-10 21:00:00 19 5 Sudoeste 13 Oeste 0 -- -- 23
2017-10-10 20:00:00 20.8 6 Sudoeste 8 Sur 0 -- -- 22
2017-10-10 19:00:00 25.8 6 Noroeste 14 Noroeste 0 -- -- 18
2017-10-10 18:00:00 27.1 9 Noroeste 20 Oeste 0 -- -- 17
2017-10-10 17:00:00 27.4 5 Noroeste 19 Noroeste 0 -- -- 16
2017-10-10 16:00:00 26.8 8 Oeste 17 Noroeste 0 -- -- 17
2017-10-10 15:00:00 25.9 8 Noroeste 17 Oeste 0 -- -- 18
2017-10-10 14:00:00 24.6 5 Noroeste 14 Oeste 0 -- -- 19
2017-10-10 13:00:00 23.8 3 Norte 11 Nordeste 0 -- -- 20
2017-10-10 12:00:00 21.3 3 Nordeste 8 Nordeste 0 -- -- 23
2017-10-10 11:00:00 17.1 4 Nordeste 6 Nordeste 0 -- -- 29
2017-10-10 10:00:00 9.8 0 Calma 3 Oeste 0 -- -- 42
2017-10-10 09:00:00 6.5 0 Calma 2 Noroeste 0 -- -- 46
2017-10-10 08:00:00 6.2 0 Calma 2 Sudoeste 0 -- -- 46
2017-10-10 07:00:00 6.4 0 Calma 8 Sudeste 0 -- -- 44
2017-10-10 06:00:00 9.1 5 Sudeste 13 Sudeste 0 -- -- 39
2017-10-10 05:00:00 10.1 9 Sudeste 12 Sudeste 0 -- -- 36
2017-10-10 04:00:00 10 9 Sudeste 14 Sudeste 0 -- -- 37
2017-10-10 03:00:00 9.8 9 Sudeste 13 Sudeste 0 -- -- 37
2017-10-10 02:00:00 9 3 Sudeste 11 Sudoeste 0 -- -- 37
2017-10-10 01:00:00 11.3 6 Oeste 13 Sudeste 0 -- -- 32
2017-10-10 00:00:00 12.5 5 Sudeste 16 Sudeste 0 -- -- 30
2017-10-09 23:00:00 14.2 10 Sudeste 15 Sudeste 0 -- -- 27
2017-10-09 22:00:00 15.8 6 Sudeste 10 Nordeste 0 -- -- 25
2017-10-09 21:00:00 17.1 0 Calma 6 Oeste 0 -- -- 23
2017-10-09 20:00:00 22.1 5 Oeste 14 Oeste 0 -- -- 18
2017-10-09 19:00:00 25.8 10 Oeste 19 Noroeste 0 -- -- 15
2017-10-09 18:00:00 26.9 10 Noroeste 21 Oeste 0 -- -- 14
2017-10-09 17:00:00 26.9 5 Norte 24 Oeste 0 -- -- 16
2017-10-09 16:00:00 26.7 6 Noroeste 15 Oeste 0 -- -- 17
2017-10-09 15:00:00 25.7 7 Oeste 14 Oeste 0 -- -- 17
2017-10-09 14:00:00 23.9 6 Oeste 12 Norte 0 -- -- 19
2017-10-09 13:00:00 21.5 5 Norte 10 Norte 0 -- -- 22
2017-10-09 12:00:00 18.9 5 Este 9 Este 0 -- -- 25
2017-10-09 11:00:00 15 5 Nordeste 12 Este 0 -- -- 32
2017-10-09 10:00:00 11 7 Este 10 Este 0 -- -- 37
2017-10-09 09:00:00 5.8 3 Nordeste 10 Sudeste 0 -- -- 48
2017-10-09 08:00:00 7.4 4 Sudoeste 8 Oeste 0 -- -- 43
2017-10-09 07:00:00 6.5 0 Calma 9 Sudeste 0 -- -- 45
2017-10-09 06:00:00 9 3 Sudeste 12 Sudeste 0 -- -- 39
2017-10-09 05:00:00 9.2 7 Sudeste 10 Sudeste 0 -- -- 40
2017-10-09 04:00:00 10.4 8 Sudeste 11 Sudeste 0 -- -- 38
2017-10-09 03:00:00 10.8 6 Sudeste 14 Sudeste 0 -- -- 36
2017-10-09 02:00:00 9.8 4 Sudeste 8 Oeste 0 -- -- 36
2017-10-09 01:00:00 11.3 7 Sudoeste 15 Sudeste 0 -- -- 33
2017-10-09 00:00:00 14.5 12 Sudeste 15 Sudeste 0 -- -- 28
2017-10-08 23:00:00 15.9 10 Sudeste 13 Sudeste 0 -- -- 25
2017-10-08 22:00:00 16.6 5 Este 15 Este 0 -- -- 23
2017-10-08 21:00:00 17.6 2 Nordeste 8 Oeste 0 -- -- 22
2017-10-08 20:00:00 22.7 3 Nordeste 12 Norte 0 -- -- 18
2017-10-08 19:00:00 27.2 5 Noroeste 12 Noroeste 0 -- -- 14
2017-10-08 18:00:00 27.6 5 Norte 17 Norte 0 -- -- 13
2017-10-08 17:00:00 28 9 Noroeste 18 Norte 0 -- -- 14
2017-10-08 16:00:00 27.8 6 Norte 14 Noroeste 0 -- -- 14
2017-10-08 15:00:00 27.3 4 Norte 14 Nordeste 0 -- -- 14
2017-10-08 14:00:00 26.2 8 Nordeste 17 Nordeste 0 -- -- 14
2017-10-08 13:00:00 24.1 8 Nordeste 14 Nordeste 0 -- -- 17
2017-10-08 12:00:00 21.4 5 Nordeste 10 Nordeste 0 -- -- 18
2017-10-08 11:00:00 17.4 5 Nordeste 12 Nordeste 0 -- -- 24
2017-10-08 10:00:00 12.5 6 Este 8 Este 0 -- -- 32
2017-10-08 09:00:00 6.9 4 Nordeste 9 Sudeste 0 -- -- 41
2017-10-08 08:00:00 7.3 5 Este 10 Este 0 -- -- 39
2017-10-08 07:00:00 7.3 5 Este 9 Sudeste 0 -- -- 37
2017-10-08 06:00:00 8.2 6 Este 8 Este 0 -- -- 35
2017-10-08 05:00:00 9.7 5 Nordeste 17 Este 0 -- -- 31
2017-10-08 04:00:00 10.5 7 Sudeste 13 Este 0 -- -- 29
2017-10-08 03:00:00 9.7 5 Este 9 Este 0 -- -- 30
2017-10-08 02:00:00 10.3 7 Este 10 Este 0 -- -- 29
2017-10-08 01:00:00 10.1 0 Calma 7 Este 0 -- -- 28
2017-10-08 00:00:00 11.9 6 Este 8 Este 0 -- -- 25
2017-10-07 23:00:00 14.2 3 Este 14 Sudeste 0 -- -- 22
2017-10-07 22:00:00 16.4 8 Sudeste 13 Este 0 -- -- 19
2017-10-07 21:00:00 18.6 8 Este 12 Este 0 -- -- 15
2017-10-07 20:00:00 20.5 10 Nordeste 19 Nordeste 0 -- -- 15
2017-10-07 19:00:00 24.6 17 Nordeste 24 Nordeste 0 -- -- 11
2017-10-07 18:00:00 25.5 17 Nordeste 35 Nordeste 0 -- -- 11
2017-10-07 17:00:00 25.7 18 Nordeste 30 Nordeste 0 -- -- 11
2017-10-07 16:00:00 24.9 15 Nordeste 26 Nordeste 0 -- -- 14
2017-10-07 15:00:00 23.4 18 Nordeste 27 Nordeste 0 -- -- 20
2017-10-07 14:00:00 20.8 17 Nordeste 30 Nordeste 0 -- -- 29
2017-10-07 13:00:00 18.9 18 Nordeste 28 Nordeste 0 -- -- 36
2017-10-07 12:00:00 15.5 18 Nordeste 26 Este 0 -- -- 46
2017-10-07 11:00:00 12.8 14 Nordeste 22 Este 0 -- -- 57
2017-10-07 10:00:00 10.2 14 Este 21 Este 0 -- -- 70
2017-10-07 09:00:00 7.9 12 Nordeste 17 Este 0 -- -- 81
2017-10-07 08:00:00 7.7 8 Este 18 Nordeste 0 -- -- 81
2017-10-07 07:00:00 8.8 14 Nordeste 22 Nordeste 0 -- -- 79
2017-10-07 06:00:00 9.9 14 Nordeste 20 Nordeste 0 -- -- 75
2017-10-07 05:00:00 10.4 13 Este 19 Este 0 -- -- 72
2017-10-07 04:00:00 11.8 14 Este 20 Este 0 -- -- 68
2017-10-07 03:00:00 13.1 15 Este 21 Este 0 -- -- 62
2017-10-07 02:00:00 13.4 7 Este 20 Este 0 -- -- 61
2017-10-07 01:00:00 15.7 15 Este 26 Este 0 -- -- 53
2017-10-07 00:00:00 16.9 17 Este 27 Este 0 -- -- 48
2017-10-06 23:00:00 17.5 18 Este 23 Este 0 -- -- 43
2017-10-06 22:00:00 17.6 13 Este 17 Este 0 -- -- 35
2017-10-06 21:00:00 18.9 10 Nordeste 14 Nordeste 0 -- -- 31
2017-10-06 20:00:00 22.1 12 Nordeste 24 Nordeste 0 -- -- 27
2017-10-06 19:00:00 25.4 17 Nordeste 27 Nordeste 0 -- -- 24
2017-10-06 18:00:00 26.1 18 Nordeste 31 Nordeste 0 -- -- 24
2017-10-06 17:00:00 26.5 19 Nordeste 30 Nordeste 0 -- -- 23
2017-10-06 16:00:00 25.9 22 Este 35 Nordeste 0 -- -- 25
2017-10-06 15:00:00 25 25 Nordeste 36 Nordeste 0 -- -- 30
2017-10-06 14:00:00 23.6 24 Nordeste 35 Nordeste 0 -- -- 31
2017-10-06 13:00:00 21.5 23 Nordeste 32 Nordeste 0 -- -- 38
2017-10-06 12:00:00 18.7 18 Nordeste 26 Nordeste 0 -- -- 51
2017-10-06 11:00:00 16 17 Nordeste 23 Nordeste 0 -- -- 65
2017-10-06 10:00:00 14.3 16 Este 23 Este 0 -- -- 73
2017-10-06 09:00:00 12.5 11 Nordeste 18 Nordeste 0 -- -- 77
2017-10-06 08:00:00 12.9 9 Nordeste 19 Este 0 -- -- 75
2017-10-06 07:00:00 13 10 Este 15 Este 0 -- -- 71
2017-10-06 06:00:00 12.9 7 Nordeste 15 Este 0 -- -- 66
2017-10-06 05:00:00 14 10 Este 14 Este 0 -- -- 58
2017-10-06 04:00:00 14.2 6 Este 13 Este 0 -- -- 52
2017-10-06 03:00:00 15.6 8 Noroeste 13 Norte 0 -- -- 47
2017-10-06 02:00:00 15.1 5 Sudoeste 8 Sudeste 0 -- -- 49
2017-10-06 01:00:00 18.4 5 Sur 12 Sur 0 -- -- 41
2017-10-06 00:00:00 19.3 8 Sur 20 Sudoeste 0 -- -- 40
2017-10-05 23:00:00 19 2 Este 5 Este 0 -- -- 40
2017-10-05 22:00:00 20.5 3 Noroeste 7 Nordeste 0 -- -- 38
2017-10-05 21:00:00 22.5 0 Calma 10 Noroeste 0 -- -- 35
2017-10-05 20:00:00 26.9 7 Noroeste 12 Noroeste 0 -- -- 29
2017-10-05 19:00:00 29.8 8 Noroeste 11 Nordeste 0 -- -- 25
2017-10-05 18:00:00 30.7 3 Sudoeste 13 Noroeste 0 -- -- 25
2017-10-05 17:00:00 30 5 Nordeste 18 Este 0 -- -- 25
2017-10-05 16:00:00 29.8 7 Este 13 Este 0 -- -- 26
2017-10-05 15:00:00 29.3 7 Oeste 15 Oeste 0 -- -- 27
2017-10-05 14:00:00 28.8 6 Sudoeste 19 Oeste 0 -- -- 30
2017-10-05 13:00:00 27.8 9 Oeste 17 Oeste 0 -- -- 32
2017-10-05 12:00:00 26.4 3 Noroeste 10 Noroeste 0 -- -- 37
2017-10-05 11:00:00 23.7 0 Calma 6 Sur 0 -- -- 43
2017-10-05 10:00:00 17.8 3 Sudoeste 7 Sur 0 -- -- 55
2017-10-05 09:00:00 14.8 4 Sudeste 11 Sudeste 0 -- -- 64
2017-10-05 08:00:00 15.3 11 Sudeste 16 Sudeste 0 -- -- 66
2017-10-05 07:00:00 14.7 12 Sudeste 16 Sudeste 0 -- -- 65
2017-10-05 06:00:00 14.5 4 Sudoeste 15 Sudeste 0 -- -- 66
2017-10-05 05:00:00 15.6 10 Sudeste 15 Sudeste 0 -- -- 65
2017-10-05 04:00:00 15.8 12 Sudeste 14 Sudeste 0 -- -- 64
2017-10-05 03:00:00 16.3 10 Sudeste 12 Sudeste 0 -- -- 64
2017-10-05 02:00:00 16.1 6 Sur 7 Sur 0 -- -- 65
2017-10-05 01:00:00 16.2 4 Sudeste 8 Noroeste 0 -- -- 64
2017-10-05 00:00:00 18.8 6 Noroeste 13 Sur 0 -- -- 55
2017-10-04 23:00:00 21.4 10 Sur 15 Sur 0 -- -- 50
2017-10-04 22:00:00 22.5 9 Sur 18 Sur 0 -- -- 47
2017-10-04 21:00:00 24.1 11 Sur 19 Sudoeste 0 -- -- 43
2017-10-04 20:00:00 26.6 13 Sudoeste 20 Sudoeste 0 -- -- 37
2017-10-04 19:00:00 28.6 12 Sudoeste 21 Sudoeste 0 -- -- 32
2017-10-04 18:00:00 30.2 11 Sudoeste 25 Oeste 0 -- -- 28
2017-10-04 17:00:00 30.4 14 Oeste 34 Oeste 0 -- -- 29
2017-10-04 16:00:00 30.5 13 Sudoeste 22 Oeste 0 -- -- 27
2017-10-04 15:00:00 29.2 8 Oeste 19 Oeste 0 -- -- 29
2017-10-04 14:00:00 27.8 6 Oeste 11 Oeste 0 -- -- 30
2017-10-04 13:00:00 25.2 4 Nordeste 14 Nordeste 0 -- -- 34
2017-10-04 12:00:00 22.4 7 Nordeste 12 Nordeste 0 -- -- 40
2017-10-04 11:00:00 18.7 6 Nordeste 10 Nordeste 0 -- -- 48
2017-10-04 10:00:00 14.6 8 Nordeste 11 Nordeste 0 -- -- 57
2017-10-04 09:00:00 11.7 7 Este 13 Este 0 -- -- 64
2017-10-04 08:00:00 12.1 10 Este 14 Este 0 -- -- 63
2017-10-04 07:00:00 11.4 7 Este 9 Este 0 -- -- 62
2017-10-04 06:00:00 11.7 5 Sudeste 8 Sudeste 0 -- -- 60
2017-10-04 05:00:00 12.4 6 Sur 8 Sudeste 0 -- -- 55
2017-10-04 04:00:00 13.3 0 Calma 9 Sur 0 -- -- 52
2017-10-04 03:00:00 14.3 4 Sudeste 12 Sur 0 -- -- 48
2017-10-04 02:00:00 15 3 Sudeste 12 Sudeste 0 -- -- 46
2017-10-04 01:00:00 16.2 6 Sudeste 8 Sudeste 0 -- -- 43
2017-10-04 00:00:00 17.7 6 Sur 21 Sudoeste 0 -- -- 39
2017-10-03 23:00:00 18.2 8 Sudeste 14 Este 0 -- -- 39
2017-10-03 22:00:00 19.2 0 Calma 4 Este 0 -- -- 36
2017-10-03 21:00:00 21.9 0 Calma 9 Noroeste 0 -- -- 34
2017-10-03 20:00:00 27 5 Noroeste 17 Oeste 0 -- -- 27
2017-10-03 19:00:00 29.4 10 Oeste 21 Noroeste 0 -- -- 21
2017-10-03 18:00:00 29.9 12 Noroeste 23 Noroeste 0 -- -- 24
2017-10-03 17:00:00 30.1 14 Oeste 23 Noroeste 0 -- -- 26
2017-10-03 16:00:00 29.8 14 Noroeste 29 Noroeste 0 -- -- 32
2017-10-03 15:00:00 29.2 12 Oeste 22 Oeste 0 -- -- 36
2017-10-03 14:00:00 28.1 8 Noroeste 16 Noroeste 0 -- -- 40
2017-10-03 13:00:00 27.1 7 Oeste 15 Oeste 0 -- -- 43
2017-10-03 12:00:00 25.2 6 Noroeste 12 Noroeste 0 -- -- 48
2017-10-03 11:00:00 23.1 3 Oeste 7 Sudeste 0 -- -- 54
2017-10-03 10:00:00 18.9 6 Sudeste 12 Sudeste 0 -- -- 66
2017-10-03 09:00:00 15.2 8 Sudeste 10 Sudeste 0 -- -- 79
2017-10-03 08:00:00 12.8 4 Sudeste 6 Sudeste 0 -- -- 83
2017-10-03 07:00:00 13.4 0 Calma 10 Sudeste 0 -- -- 77
2017-10-03 06:00:00 14 5 Sudeste 7 Sudeste 0 -- -- 78
2017-10-03 05:00:00 14.7 4 Sudeste 6 Sudeste 0 -- -- 76
2017-10-03 04:00:00 13.8 0 Calma 6 Noroeste 0 -- -- 75
2017-10-03 03:00:00 14.7 0 Calma 6 Sur 0 -- -- 72
2017-10-03 02:00:00 15.8 3 Oeste 5 Sudoeste 0 -- -- 67
2017-10-03 01:00:00 17.5 3 Noroeste 8 Sudeste 0 -- -- 62
2017-10-03 00:00:00 20.2 7 Sudeste 14 Sudeste 0 -- -- 57
2017-10-02 23:00:00 20.6 10 Sudeste 13 Sudeste 0 -- -- 55
2017-10-02 22:00:00 21.8 11 Este 13 Este 0 -- -- 51
2017-10-02 21:00:00 22.8 9 Este 12 Este 0 -- -- 49
2017-10-02 20:00:00 25.8 9 Nordeste 17 Este 0 -- -- 42
2017-10-02 19:00:00 27.5 13 Nordeste 20 Nordeste 0 -- -- 40
2017-10-02 18:00:00 27.8 8 Este 22 Nordeste 0 -- -- 40
2017-10-02 17:00:00 27.8 10 Nordeste 23 Norte 0 -- -- 41
2017-10-02 16:00:00 27.2 9 Este 24 Este 0 -- -- 42
2017-10-02 15:00:00 26.6 13 Nordeste 22 Norte 0 -- -- 44
2017-10-02 14:00:00 25.8 13 Este 24 Este 0 -- -- 44
2017-10-02 13:00:00 24.7 15 Nordeste 25 Este 0 -- -- 43
2017-10-02 12:00:00 23 13 Nordeste 23 Nordeste 0 -- -- 45
2017-10-02 11:00:00 20.8 16 Nordeste 20 Nordeste 0 -- -- 52
2017-10-02 10:00:00 17.4 4 Nordeste 6 Nordeste 0 -- -- 58
2017-10-02 09:00:00 12.6 0 Calma 4 Este 0 -- -- 70
2017-10-02 08:00:00 12.4 2 Nordeste 9 Sudeste 0 -- -- 71
2017-10-02 07:00:00 11.6 3 Este 5 Oeste 0 -- -- 72
2017-10-02 06:00:00 13.6 8 Este 13 Este 0 -- -- 68
2017-10-02 05:00:00 12.8 6 Este 8 Este 0 -- -- 70
2017-10-02 04:00:00 13.1 6 Este 9 Este 0 -- -- 68
2017-10-02 03:00:00 13.6 2 Sur -- -- 0 -- -- 65
2017-10-02 02:00:00 14.3 0 Calma 3 Noroeste 0 -- -- 64
2017-10-02 01:00:00 16 3 Sur 9 Este 0 -- -- 56
2017-10-02 00:00:00 17.1 4 Sudeste 10 Este 0 -- -- 52
2017-10-01 23:00:00 19.1 9 Este 14 Este 0 -- -- 48
2017-10-01 22:00:00 20.5 11 Este 14 Nordeste 0 -- -- 44
2017-10-01 21:00:00 22.7 9 Nordeste 15 Nordeste 0 -- -- 39
2017-10-01 20:00:00 24.7 14 Nordeste 21 Norte 0 -- -- 36
2017-10-01 19:00:00 25.5 12 Norte 21 Nordeste 0 -- -- 36
2017-10-01 18:00:00 26.4 14 Nordeste 23 Nordeste 0 -- -- 34
2017-10-01 17:00:00 26.7 12 Norte 23 Norte 0 -- -- 33
2017-10-01 16:00:00 25.7 7 Norte 22 Norte 0 -- -- 36
2017-10-01 15:00:00 24.6 9 Nordeste 24 Nordeste 0 -- -- 39
2017-10-01 14:00:00 23.6 10 Nordeste 24 Nordeste 0 -- -- 42
2017-10-01 13:00:00 22.2 11 Nordeste 23 Norte 0 -- -- 46
2017-10-01 12:00:00 20.6 15 Nordeste 22 Este 0 -- -- 51
2017-10-01 11:00:00 17.7 14 Nordeste 22 Este 0 -- -- 61
2017-10-01 10:00:00 14.3 9 Nordeste 13 Nordeste 0 -- -- 74
2017-10-01 09:00:00 11.1 4 Nordeste 10 Este 0 -- -- 79
2017-10-01 08:00:00 11.2 9 Este 13 Este 0 -- -- 77
2017-10-01 07:00:00 10.4 0 Calma 8 Sudeste 0 -- -- 77
2017-10-01 06:00:00 10.9 8 Este 10 Este 0 -- -- 77
2017-10-01 05:00:00 11.1 6 Este 8 Este 0 -- -- 75
2017-10-01 04:00:00 11.9 3 Sudoeste 5 Sudeste 0 -- -- 74
2017-10-01 03:00:00 12.4 3 Sudeste 5 Sudoeste 0 -- -- 72
2017-10-01 02:00:00 13.2 3 Oeste 6 Sudoeste 0 -- -- 68
2017-10-01 01:00:00 13.9 6 Sur 9 Sur 0 -- -- 65
2017-10-01 00:00:00 15.1 5 Oeste 8 Oeste 0 -- -- 62
2017-09-30 23:00:00 16.3 5 Oeste 13 Noroeste 0 -- -- 59
2017-09-30 22:00:00 17.4 4 Oeste 10 Oeste 0 -- -- 54
2017-09-30 21:00:00 19.5 8 Oeste 20 Noroeste 0 -- -- 49
2017-09-30 20:00:00 21.3 10 Noroeste 22 Noroeste 0 -- -- 44
2017-09-30 19:00:00 22.9 15 Noroeste 27 Noroeste 0 -- -- 41
2017-09-30 18:00:00 24.2 14 Noroeste 27 Noroeste 0 -- -- 36
2017-09-30 17:00:00 24.4 10 Noroeste 28 Oeste 0 -- -- 29
2017-09-30 16:00:00 24.2 11 Oeste 22 Oeste 0 -- -- 33
2017-09-30 15:00:00 23.2 11 Oeste 24 Noroeste 0 -- -- 45
2017-09-30 14:00:00 21.9 8 Oeste 22 Oeste 0 -- -- 52
2017-09-30 13:00:00 20.6 8 Noroeste 17 Noroeste 0 -- -- 61
2017-09-30 12:00:00 18.4 5 Oeste 14 Oeste 0 -- -- 72
2017-09-30 11:00:00 16.8 4 Oeste 9 Oeste 0 -- -- 79
2017-09-30 10:00:00 14.6 4 Oeste 7 Oeste 0 -- -- 83
2017-09-30 09:00:00 12.7 0 Calma 4 Sur 0 -- -- 83
2017-09-30 08:00:00 13.2 3 Sudoeste 10 Sur 0 -- -- 83
2017-09-30 07:00:00 12.9 6 Sur 9 Sur 0 -- -- 80
2017-09-30 06:00:00 13 0 Calma 12 Sur 0 -- -- 77
2017-09-30 05:00:00 14.1 5 Sur 10 Sur 0 -- -- 74
2017-09-30 04:00:00 14.6 6 Sudoeste 10 Sur 0 -- -- 70
2017-09-30 03:00:00 15.1 2 Sudoeste 9 Sudoeste 0 -- -- 64
2017-09-30 02:00:00 16.6 7 Sudoeste 11 Sudoeste 0 -- -- 65
2017-09-30 01:00:00 16.9 6 Sudoeste 12 Sudoeste 0 -- -- 57
2017-09-30 00:00:00 17.9 8 Sudoeste 11 Sudoeste 0 -- -- 51
2017-09-29 23:00:00 18.9 7 Sudoeste 10 Sudoeste 0 -- -- 47
2017-09-29 22:00:00 21 5 Oeste 17 Oeste 0 -- -- 42
2017-09-29 21:00:00 23.8 10 Oeste 19 Noroeste 0 -- -- 38
2017-09-29 20:00:00 24.4 5 Oeste 14 Oeste 0 -- -- 39
2017-09-29 19:00:00 25.9 10 Oeste 28 Sudoeste 0 -- -- 36
2017-09-29 18:00:00 26.2 16 Sudoeste 29 Oeste 0 -- -- 35
2017-09-29 17:00:00 27.3 16 Sudoeste 36 Oeste 0 -- -- 33
2017-09-29 16:00:00 26.9 12 Oeste 30 Oeste 0 -- -- 34
2017-09-29 15:00:00 26.9 16 Sudoeste 30 Sudoeste 0 -- -- 33
2017-09-29 14:00:00 25.8 6 Oeste 23 Sudoeste 0 -- -- 36
2017-09-29 13:00:00 24.7 4 Sudoeste 13 Este 0 -- -- 38
2017-09-29 12:00:00 22 3 Nordeste 7 Noroeste 0 -- -- 45
2017-09-29 11:00:00 18.5 2 Nordeste 4 Norte 0 -- -- 58
2017-09-29 10:00:00 12.9 0 Calma 7 Noroeste 0 -- -- 66
2017-09-29 09:00:00 12.7 0 Calma 11 Sudeste 0 -- -- 68
2017-09-29 08:00:00 13.5 7 Sudeste 14 Sudeste 0 -- -- 70
2017-09-29 07:00:00 12.8 6 Sudeste 9 Sudeste 0 -- -- 71
2017-09-29 06:00:00 13 9 Sudeste 13 Sudeste 0 -- -- 68
2017-09-29 05:00:00 13.8 8 Sur 10 Sudeste 0 -- -- 65
2017-09-29 04:00:00 15.1 6 Sur 10 Sudoeste 0 -- -- 61
2017-09-29 03:00:00 15.9 9 Sur 12 Sur 0 -- -- 57
2017-09-29 02:00:00 15.4 6 Sur 9 Sur 0 -- -- 52
2017-09-29 01:00:00 17 5 Sudoeste 12 Sudoeste 0 -- -- 47
2017-09-29 00:00:00 17.3 7 Sudoeste 15 Oeste 0 -- -- 45
2017-09-28 23:00:00 19.1 9 Sur 13 Sur 0 -- -- 41
2017-09-28 22:00:00 20.4 9 Sur 16 Sur 0 -- -- 37
2017-09-28 21:00:00 21.6 10 Sur 14 Sur 0 -- -- 31
2017-09-28 20:00:00 24.3 10 Sudoeste 21 Sudoeste 0 -- -- 25
2017-09-28 19:00:00 26.3 18 Oeste 28 Sudoeste 0 -- -- 24
2017-09-28 18:00:00 27.1 14 Sudoeste 37 Noroeste 0 -- -- 24
2017-09-28 17:00:00 27.3 14 Oeste 25 Oeste 0 -- -- 23
2017-09-28 16:00:00 27.3 13 Sudoeste 26 Sudoeste 0 -- -- 23
2017-09-28 15:00:00 26.6 9 Sudoeste 24 Oeste 0 -- -- 24
2017-09-28 14:00:00 25.9 13 Sudoeste 21 Sudoeste 0 -- -- 27
2017-09-28 13:00:00 25.3 5 Sudoeste 19 Sur 0 -- -- 30
2017-09-28 12:00:00 24.2 6 Sur 14 Oeste 0 -- -- 32
2017-09-28 11:00:00 21.7 7 Sudeste 19 Sudeste 0 -- -- 36
2017-09-28 10:00:00 17.1 12 Sudeste 22 Sudeste 0 -- -- 44
2017-09-28 09:00:00 13.1 10 Sudeste 17 Sudeste 0 -- -- 53
2017-09-28 08:00:00 10.8 8 Sudeste 15 Sudeste 0 -- -- 59
2017-09-28 07:00:00 10.8 11 Sudeste 14 Sudeste 0 -- -- 60
2017-09-28 06:00:00 11.5 10 Sudeste 13 Sudeste 0 -- -- 57
2017-09-28 05:00:00 10.6 6 Sudeste 10 Sudeste 0 -- -- 63
2017-09-28 04:00:00 12.8 3 Sur 12 Sur 0 -- -- 56
2017-09-28 03:00:00 13.3 8 Sur 12 Sur 0 -- -- 55
2017-09-28 02:00:00 15.3 7 Sudoeste 9 Sur 0 -- -- 50
2017-09-28 01:00:00 13.7 4 Sudeste 24 Noroeste 0 -- -- 53
2017-09-28 00:00:00 17.1 15 Sur 19 Sur 0 -- -- 47
2017-09-27 23:00:00 17.9 12 Sur 18 Sur 0 -- -- 45
2017-09-27 22:00:00 19.1 10 Sur 15 Sur 0 -- -- 36
2017-09-27 21:00:00 20.5 9 Sur 14 Sudoeste 0 -- -- 33
2017-09-27 20:00:00 23.1 9 Sudoeste 23 Sudoeste 0 -- -- 28
2017-09-27 19:00:00 25.5 11 Oeste 26 Oeste 0 -- -- 27
2017-09-27 18:00:00 26.1 14 Sudoeste 25 Sudoeste 0 -- -- 23
2017-09-27 17:00:00 26.3 10 Sudoeste 31 Sudoeste 0 -- -- 24
2017-09-27 16:00:00 26.3 17 Sudoeste 31 Sudoeste 0 -- -- 25
2017-09-27 15:00:00 26.4 19 Sudoeste 36 Sudoeste 0 -- -- 25
2017-09-27 14:00:00 26.1 14 Oeste 30 Sudoeste 0 -- -- 26
2017-09-27 13:00:00 24.9 13 Sudoeste 22 Sudoeste 0 -- -- 28
2017-09-27 12:00:00 23.5 12 Sudoeste 18 Oeste 0 -- -- 31
2017-09-27 11:00:00 20.4 3 Nordeste 6 Sudeste 0 -- -- 37
2017-09-27 10:00:00 15.4 6 Sudeste 9 Sudeste 0 -- -- 47
2017-09-27 09:00:00 8.8 0 Calma 4 Sudeste 0 -- -- 65
2017-09-27 08:00:00 7.8 2 Este 9 Sudeste 0 -- -- 65
2017-09-27 07:00:00 9.4 8 Sudeste 13 Sudeste 0 -- -- 61
2017-09-27 06:00:00 9.5 8 Sudeste 12 Sudeste 0 -- -- 61
2017-09-27 05:00:00 8.8 8 Sudeste 9 Sudeste 0 -- -- 63
2017-09-27 04:00:00 8.7 0 Calma 7 Sudeste 0 -- -- 61
2017-09-27 03:00:00 9.9 2 Norte 9 Sudeste 0 -- -- 56
2017-09-27 02:00:00 12.5 10 Sudeste 12 Sudeste 0 -- -- 50
2017-09-27 01:00:00 13.7 7 Sudeste 12 Sudeste 0 -- -- 47
2017-09-27 00:00:00 14.6 10 Sudeste 12 Sudeste 0 -- -- 44
2017-09-26 23:00:00 16.2 3 Sudeste 10 Este 0 -- -- 40
2017-09-26 22:00:00 16.2 5 Nordeste 7 Noroeste 0 -- -- 42
2017-09-26 21:00:00 19.6 7 Noroeste 12 Noroeste 0 -- -- 35
2017-09-26 20:00:00 23.5 4 Noroeste 8 Norte 0 -- -- 27
2017-09-26 19:00:00 25.3 6 Noroeste 15 Noroeste 0 -- -- 23
2017-09-26 18:00:00 25.8 4 Oeste 16 Sudoeste 0 -- -- 23
2017-09-26 17:00:00 24.9 8 Norte 18 Noroeste 0 -- -- 26
2017-09-26 16:00:00 24.6 8 Norte 18 Norte 0 -- -- 28
2017-09-26 15:00:00 23.8 9 Norte 20 Noroeste 0 -- -- 31
2017-09-26 14:00:00 22.6 6 Nordeste 17 Nordeste 0 -- -- 35
2017-09-26 13:00:00 21 9 Nordeste 18 Este 0 -- -- 40
2017-09-26 12:00:00 18.5 9 Nordeste 14 Nordeste 0 -- -- 45
2017-09-26 11:00:00 15.2 6 Nordeste 9 Este 0 -- -- 58
2017-09-26 10:00:00 12.2 4 Este 9 Sudeste 0 -- -- 66
2017-09-26 09:00:00 8 6 Sudeste 10 Sudeste 0 -- -- 77
2017-09-26 08:00:00 6.6 6 Sudeste 8 Sudeste 0 -- -- 82
2017-09-26 07:00:00 7.3 4 Este 10 Sudoeste 0 -- -- 77
2017-09-26 06:00:00 9.2 6 Sudoeste 9 Sur 0 -- -- 71
2017-09-26 05:00:00 10.6 4 Sudoeste 13 Sudoeste 0 -- -- 63
2017-09-26 04:00:00 9.8 6 Sur 8 Sur 0 -- -- 62
2017-09-26 03:00:00 11.8 5 Sur 11 Sudoeste 0 -- -- 55
2017-09-26 02:00:00 11.1 4 Sudoeste 6 Sudoeste 0 -- -- 57
2017-09-26 01:00:00 11.7 5 Sudoeste 6 Sudoeste 0 -- -- 53
2017-09-26 00:00:00 13.1 0 Calma 17 Este 0 -- -- 50
2017-09-25 23:00:00 14.2 3 Oeste 8 Noroeste 0 -- -- 47
2017-09-25 22:00:00 16.7 6 Noroeste 16 Noroeste 0 -- -- 42
2017-09-25 21:00:00 18 8 Noroeste 14 Noroeste 0 -- -- 38
2017-09-25 20:00:00 20.8 9 Noroeste 18 Noroeste 0 -- -- 33
2017-09-25 19:00:00 22.5 11 Noroeste 22 Noroeste 0 -- -- 31
2017-09-25 18:00:00 22.8 9 Noroeste 24 Oeste 0 -- -- 30
2017-09-25 17:00:00 22.6 9 Noroeste 25 Oeste 0 -- -- 31
2017-09-25 16:00:00 21.9 10 Noroeste 21 Noroeste 0 -- -- 37
2017-09-25 15:00:00 21.1 13 Noroeste 25 Noroeste 0 -- -- 42
2017-09-25 14:00:00 20.1 14 Noroeste 27 Oeste 0 -- -- 49
2017-09-25 13:00:00 18.1 8 Noroeste 18 Noroeste 0 -- -- 59
2017-09-25 12:00:00 16.7 7 Norte 17 Noroeste 0 -- -- 64
2017-09-25 11:00:00 14.6 9 Noroeste 15 Noroeste 0 -- -- 75
2017-09-25 10:00:00 12.6 2 Oeste 6 Oeste 0 -- -- 88
2017-09-25 09:00:00 10.8 3 Sudoeste 5 Sudoeste 0 -- -- 96
2017-09-25 08:00:00 10.6 4 Sudoeste 8 Sudoeste 0 -- -- 96
2017-09-25 07:00:00 10.7 5 Oeste 7 Oeste 0 -- -- 93
2017-09-25 06:00:00 11.8 2 Sudoeste 19 Noroeste 0 -- -- 90
2017-09-25 05:00:00 13.1 8 Oeste 14 Oeste 0 -- -- 87
2017-09-25 04:00:00 15.2 8 Oeste 14 Oeste 0 -- -- 79
2017-09-25 03:00:00 16.2 9 Oeste 15 Sudoeste 0 -- -- 74
2017-09-25 02:00:00 15.8 8 Sudoeste 13 Sudoeste 0 -- -- 67
2017-09-25 01:00:00 16.6 8 Sudoeste 14 Sur 0 -- -- 51
2017-09-25 00:00:00 17.3 9 Sudoeste 15 Sudoeste 0 -- -- 39
2017-09-24 23:00:00 18.2 8 Sudoeste 16 Sudoeste 0 -- -- 33
2017-09-24 22:00:00 19.5 9 Sudoeste 17 Oeste 0 -- -- 27
2017-09-24 21:00:00 20.9 9 Sudoeste 18 Oeste 0 -- -- 22
2017-09-24 20:00:00 24 12 Sudoeste 28 Sudoeste 0 -- -- 19
2017-09-24 19:00:00 26 20 Sudoeste 35 Sudoeste 0 -- -- 17
2017-09-24 18:00:00 27 21 Sudoeste 40 Sudoeste 0 -- -- 19
2017-09-24 17:00:00 27.1 22 Sudoeste 42 Sudoeste 0 -- -- 22
2017-09-24 16:00:00 27.3 22 Sudoeste 40 Sudoeste 0 -- -- 20
2017-09-24 15:00:00 26.8 25 Sudoeste 39 Sudoeste 0 -- -- 25
2017-09-24 14:00:00 25.8 26 Sudoeste 43 Sudoeste 0 -- -- 32
2017-09-24 13:00:00 24.7 20 Sudoeste 32 Sudoeste 0 -- -- 35
2017-09-24 12:00:00 23.2 18 Sudoeste 29 Sudoeste 0 -- -- 37
2017-09-24 11:00:00 21.7 17 Sudoeste 23 Oeste 0 -- -- 37
2017-09-24 10:00:00 17.5 11 Sudeste 21 Sudeste 0 -- -- 51
2017-09-24 09:00:00 13.2 13 Sudeste 19 Sudeste 0 -- -- 63
2017-09-24 08:00:00 12.2 7 Sudeste 11 Sudeste 0 -- -- 67
2017-09-24 07:00:00 10.9 0 Calma 12 Sudeste 0 -- -- 69
2017-09-24 06:00:00 12.4 10 Sudeste 13 Sudeste 0 -- -- 65
2017-09-24 05:00:00 12.2 10 Sudeste 12 Sudeste 0 -- -- 65
2017-09-24 04:00:00 12.9 9 Sudeste 12 Sudeste 0 -- -- 64
2017-09-24 03:00:00 13.6 6 Sudeste 8 Sudeste 0 -- -- 60
2017-09-24 02:00:00 15.4 4 Sudeste 13 Sudoeste 0 -- -- 56
2017-09-24 01:00:00 16.1 9 Sudoeste 14 Sudoeste 0 -- -- 53
2017-09-24 00:00:00 17.2 6 Sudoeste 8 Sudoeste 0 -- -- 48
2017-09-23 23:00:00 18.9 5 Sudoeste 14 Sudoeste 0 -- -- 44
2017-09-23 22:00:00 20.3 9 Sudoeste 15 Oeste 0 -- -- 44
2017-09-23 21:00:00 21.4 8 Sur 11 Sudoeste 0 -- -- 41
2017-09-23 20:00:00 22.9 8 Sudoeste 20 Sudoeste 0 -- -- 37
2017-09-23 19:00:00 24.6 15 Sudoeste 27 Sudoeste 0 -- -- 35
2017-09-23 18:00:00 25.8 17 Sudoeste 32 Sudoeste 0 -- -- 32
2017-09-23 17:00:00 26.5 18 Sudoeste 33 Sudoeste 0 -- -- 31
2017-09-23 16:00:00 26.6 17 Sudoeste 32 Sudoeste 0 -- -- 30
2017-09-23 15:00:00 25.7 24 Sudoeste 40 Oeste 0 -- -- 32
2017-09-23 14:00:00 25.3 22 Sudoeste 35 Sudoeste 0 -- -- 34
2017-09-23 13:00:00 24.3 14 Sudoeste 24 Sudoeste 0 -- -- 33
2017-09-23 12:00:00 21.9 4 Noroeste 11 Noroeste 0 -- -- 37
2017-09-23 11:00:00 19.9 0 Calma 6 Noroeste 0 -- -- 42
2017-09-23 10:00:00 17.1 3 Sudeste 8 Sudeste 0 -- -- 46
2017-09-23 09:00:00 12 4 Sudeste 10 Sudeste 0 -- -- 57
2017-09-23 08:00:00 11.1 8 Sudeste 9 Sudeste 0 -- -- 59
2017-09-23 07:00:00 9.7 3 Este 13 Sudoeste 0 -- -- 63
2017-09-23 06:00:00 10.6 0 Calma 9 Sudeste 0 -- -- 60
2017-09-23 05:00:00 10.4 3 Sur 8 Este 0 -- -- 60
2017-09-23 04:00:00 11 6 Sudeste 8 Sudeste 0 -- -- 58
2017-09-23 03:00:00 12.3 0 Calma 6 Noroeste 0 -- -- 55
2017-09-23 02:00:00 14.1 2 Sur 14 Sudeste 0 -- -- 50
2017-09-23 01:00:00 14.5 3 Sudeste 12 Sudeste 0 -- -- 50
2017-09-23 00:00:00 16 5 Sudeste 14 Sudeste 0 -- -- 48
2017-09-22 23:00:00 17.1 10 Nordeste 13 Este 0 -- -- 45
2017-09-22 22:00:00 19.3 7 Sur 12 Este 0 -- -- 41
2017-09-22 21:00:00 20.5 0 Calma 6 Nordeste 0 -- -- 37
2017-09-22 20:00:00 23.1 5 Norte 10 Norte 0 -- -- 33
2017-09-22 19:00:00 25.2 7 Noroeste 13 Norte 0 -- -- 30
2017-09-22 18:00:00 25.6 9 Noroeste 23 Oeste 0 -- -- 30
2017-09-22 17:00:00 25.5 6 Noroeste 21 Oeste 0 -- -- 31
2017-09-22 16:00:00 24.9 11 Oeste 20 Oeste 0 -- -- 32
2017-09-22 15:00:00 23.9 9 Noroeste 21 Noroeste 0 -- -- 35
2017-09-22 14:00:00 22.4 9 Nordeste 17 Norte 0 -- -- 44
2017-09-22 13:00:00 20 8 Norte 16 Norte 0 -- -- 51
2017-09-22 12:00:00 17.9 10 Nordeste 16 Nordeste 0 -- -- 59
2017-09-22 11:00:00 15.5 11 Nordeste 15 Nordeste 0 -- -- 68
2017-09-22 10:00:00 12.8 8 Nordeste 12 Este 0 -- -- 74
2017-09-22 09:00:00 9 8 Este 9 Este 0 -- -- 79
2017-09-22 08:00:00 7.8 3 Sudeste 6 Este 0 -- -- 80
2017-09-22 07:00:00 8.2 3 Este 5 Este 0 -- -- 79
2017-09-22 06:00:00 8.8 2 Noroeste 4 Noroeste 0 -- -- 77
2017-09-22 05:00:00 9 2 Sur 4 Sudeste 0 -- -- 76
2017-09-22 04:00:00 10.6 3 Sudeste 8 Sudeste 0 -- -- 73
2017-09-22 03:00:00 11.8 4 Sur 8 Sudoeste 0 -- -- 67
2017-09-22 02:00:00 13.1 6 Sudoeste 8 Sudoeste 0 -- -- 61
2017-09-22 01:00:00 13.1 4 Sudoeste 11 Oeste 0 -- -- 54
2017-09-22 00:00:00 14.6 5 Sur 10 Sudeste 0 -- -- 48
2017-09-21 23:00:00 15.9 0 Calma 3 Sudoeste 0 -- -- 47
2017-09-21 22:00:00 16.1 0 Calma 5 Sudoeste 0 -- -- 43
2017-09-21 21:00:00 18.3 0 Calma 9 Oeste 0 -- -- 37
2017-09-21 20:00:00 21.8 9 Oeste 20 Noroeste 0 -- -- 32
2017-09-21 19:00:00 23.1 12 Noroeste 26 Noroeste 0 -- -- 32
2017-09-21 18:00:00 23.8 14 Noroeste 25 Noroeste 0 -- -- 31
2017-09-21 17:00:00 22.5 16 Noroeste 28 Oeste 0 -- -- 33
2017-09-21 16:00:00 23.2 15 Oeste 25 Noroeste 0 -- -- 38
2017-09-21 15:00:00 23.5 13 Oeste 23 Oeste 0 -- -- 38
2017-09-21 14:00:00 22.8 11 Oeste 22 Oeste 0 -- -- 39
2017-09-21 13:00:00 21.6 9 Noroeste 19 Oeste 0 -- -- 45
2017-09-21 12:00:00 19.5 9 Noroeste 16 Oeste 0 -- -- 51
2017-09-21 11:00:00 17.6 6 Noroeste 10 Noroeste 0 -- -- 55
2017-09-21 10:00:00 13.7 2 Oeste 6 Noroeste 0 -- -- 63
2017-09-21 09:00:00 12.1 3 Sudeste 13 Sudeste 0 -- -- 69
2017-09-21 08:00:00 10.9 8 Sudeste 12 Sudeste 0 -- -- 71
2017-09-21 07:00:00 10.7 4 Sudeste 7 Sur 0 -- -- 71
2017-09-21 06:00:00 12.2 3 Sur 13 Sur 0 -- -- 66
2017-09-21 05:00:00 12.7 9 Sudeste 12 Sur 0 -- -- 66
2017-09-21 04:00:00 14.6 9 Sur 13 Sur 0 -- -- 60
2017-09-21 03:00:00 15 8 Sur 13 Sudoeste 0 -- -- 58
2017-09-21 02:00:00 16.2 6 Sur 10 Sur 0 -- -- 54
2017-09-21 01:00:00 17 7 Sudoeste 16 Sudoeste 0 -- -- 50
2017-09-21 00:00:00 18.8 12 Sudoeste 20 Sudoeste 0 -- -- 42
2017-09-20 23:00:00 19.5 10 Sur 14 Sur 0 -- -- 36
2017-09-20 22:00:00 19.9 6 Sudoeste 17 Sur 0 -- -- 34
2017-09-20 21:00:00 20.3 0 Calma 14 Noroeste 0 -- -- 30
2017-09-20 20:00:00 24.7 8 Noroeste 12 Noroeste 0 -- -- 26
2017-09-20 19:00:00 26.9 10 Oeste 19 Oeste 0 -- -- 24
2017-09-20 18:00:00 27.1 12 Noroeste 24 Oeste 0 -- -- 23
2017-09-20 17:00:00 27.3 9 Sudoeste 22 Sudoeste 0 -- -- 23
2017-09-20 16:00:00 27 13 Oeste 28 Oeste 0 -- -- 22
2017-09-20 15:00:00 26.5 12 Oeste 26 Noroeste 0 -- -- 21
2017-09-20 14:00:00 25.2 9 Oeste 17 Sudoeste 0 -- -- 24
2017-09-20 13:00:00 24 5 Norte 13 Este 0 -- -- 27
2017-09-20 12:00:00 22.3 4 Este 10 Este 0 -- -- 31
2017-09-20 11:00:00 18.3 4 Nordeste 8 Nordeste 0 -- -- 40
2017-09-20 10:00:00 13.7 4 Nordeste 7 Este 0 -- -- 50
2017-09-20 09:00:00 9.2 5 Este 8 Este 0 -- -- 63
2017-09-20 08:00:00 7.5 4 Este 8 Este 0 -- -- 67
2017-09-20 07:00:00 7.4 3 Este 8 Este 0 -- -- 67
2017-09-20 06:00:00 8 3 Sudeste 4 Sudeste 0 -- -- 64
2017-09-20 05:00:00 8.3 0 Calma 3 Norte 0 -- -- 63
2017-09-20 04:00:00 8.9 0 Calma 6 Nordeste 0 -- -- 61
2017-09-20 03:00:00 11.3 0 Calma 10 Este 0 -- -- 55
2017-09-20 02:00:00 11.9 0 Calma 5 Sudeste 0 -- -- 54
2017-09-20 01:00:00 12.8 3 Sudeste 6 Sudeste 0 -- -- 50
2017-09-20 00:00:00 14.8 7 Este 12 Este 0 -- -- 46